Terminal Aerodrome Forecast
Issued by NWS

Home | Current Version | Previous Version | Text Only | Print | Product List | Glossary On
Versions: 1 2 3 4 5 6 7 8 9 10 11 12 13 14 15 16 17 18 19 20 21 22 23 24 25 26
000
FTUS43 KPAH 211100
TAFOWB
TAF
KOWB 211121Z 2112/2212 24009KT 3SM -TSRA BR SCT015CB BKN040
      TEMPO 2112/2113 1SM TSRA BR BKN015CB
     FM211400 25006KT P6SM SCT015 BKN060
      TEMPO 2114/2115 BKN015
     FM211500 31012G18KT P6SM SKC
     FM220000 34005KT P6SM SKC=

USA.gov is the U.S. government's official web portal to all federal, state and local government web resources and services.